sensor_id;sensor_type;location;lat;lon;timestamp;P1;durP1;ratioP1;P2;durP2;ratioP2
15192;SDS011;7697;51.630;7.484;2023-03-03T00:01:18;25.20;;;15.50;;
15192;SDS011;7697;51.630;7.484;2023-03-03T00:06:19;25.07;;;16.37;;
15192;SDS011;7697;51.630;7.484;2023-03-03T00:11:21;26.20;;;16.53;;
15192;SDS011;7697;51.630;7.484;2023-03-03T00:16:26;23.57;;;14.83;;
15192;SDS011;7697;51.630;7.484;2023-03-03T00:21:30;25.13;;;15.10;;
15192;SDS011;7697;51.630;7.484;2023-03-03T00:26:33;21.63;;;13.30;;
15192;SDS011;7697;51.630;7.484;2023-03-03T00:31:38;23.33;;;14.87;;
15192;SDS011;7697;51.630;7.484;2023-03-03T00:36:40;25.37;;;15.67;;
15192;SDS011;7697;51.630;7.484;2023-03-03T00:41:42;22.77;;;14.40;;
15192;SDS011;7697;51.630;7.484;2023-03-03T00:46:45;22.47;;;13.87;;
15192;SDS011;7697;51.630;7.484;2023-03-03T00:51:47;23.00;;;14.13;;
15192;SDS011;7697;51.630;7.484;2023-03-03T00:56:49;25.10;;;15.33;;
15192;SDS011;7697;51.630;7.484;2023-03-03T01:01:52;26.00;;;15.70;;
15192;SDS011;7697;51.630;7.484;2023-03-03T01:06:53;28.97;;;16.27;;
15192;SDS011;7697;51.630;7.484;2023-03-03T01:11:55;21.83;;;13.47;;
15192;SDS011;7697;51.630;7.484;2023-03-03T01:16:59;26.23;;;15.87;;
15192;SDS011;7697;51.630;7.484;2023-03-03T01:22:01;25.43;;;15.53;;
15192;SDS011;7697;51.630;7.484;2023-03-03T01:27:03;27.83;;;14.73;;
15192;SDS011;7697;51.630;7.484;2023-03-03T01:32:06;29.60;;;17.17;;
15192;SDS011;7697;51.630;7.484;2023-03-03T01:37:08;31.60;;;18.17;;
15192;SDS011;7697;51.630;7.484;2023-03-03T01:42:09;29.67;;;17.43;;
15192;SDS011;7697;51.630;7.484;2023-03-03T01:47:13;26.53;;;15.83;;
15192;SDS011;7697;51.630;7.484;2023-03-03T01:52:20;30.00;;;17.20;;
15192;SDS011;7697;51.630;7.484;2023-03-03T01:57:26;30.77;;;17.50;;
15192;SDS011;7697;51.630;7.484;2023-03-03T02:02:34;30.27;;;15.70;;
15192;SDS011;7697;51.630;7.484;2023-03-03T02:07:37;30.00;;;16.90;;
15192;SDS011;7697;51.630;7.484;2023-03-03T02:12:39;28.60;;;15.97;;
15192;SDS011;7697;51.630;7.484;2023-03-03T02:17:45;33.20;;;18.50;;
15192;SDS011;7697;51.630;7.484;2023-03-03T02:22:50;33.93;;;17.70;;
15192;SDS011;7697;51.630;7.484;2023-03-03T02:27:58;30.40;;;15.97;;
15192;SDS011;7697;51.630;7.484;2023-03-03T02:33:00;25.10;;;15.03;;
15192;SDS011;7697;51.630;7.484;2023-03-03T02:38:06;25.50;;;14.83;;
15192;SDS011;7697;51.630;7.484;2023-03-03T02:43:16;33.87;;;17.37;;
15192;SDS011;7697;51.630;7.484;2023-03-03T02:48:22;30.17;;;16.77;;
15192;SDS011;7697;51.630;7.484;2023-03-03T02:53:24;29.73;;;15.87;;
15192;SDS011;7697;51.630;7.484;2023-03-03T02:58:27;27.53;;;15.63;;
15192;SDS011;7697;51.630;7.484;2023-03-03T03:03:29;25.00;;;14.07;;
15192;SDS011;7697;51.630;7.484;2023-03-03T03:08:31;21.40;;;13.60;;
15192;SDS011;7697;51.630;7.484;2023-03-03T03:13:34;21.67;;;13.57;;
15192;SDS011;7697;51.630;7.484;2023-03-03T03:18:36;23.90;;;13.67;;
15192;SDS011;7697;51.630;7.484;2023-03-03T03:23:37;24.70;;;13.57;;
15192;SDS011;7697;51.630;7.484;2023-03-03T03:28:41;19.33;;;11.77;;
15192;SDS011;7697;51.630;7.484;2023-03-03T03:33:43;16.80;;;11.20;;
15192;SDS011;7697;51.630;7.484;2023-03-03T03:38:45;17.17;;;10.67;;
15192;SDS011;7697;51.630;7.484;2023-03-03T03:43:48;18.43;;;11.70;;
15192;SDS011;7697;51.630;7.484;2023-03-03T03:48:49;16.33;;;10.90;;
15192;SDS011;7697;51.630;7.484;2023-03-03T03:53:51;15.63;;;10.57;;
15192;SDS011;7697;51.630;7.484;2023-03-03T03:58:54;17.20;;;10.83;;
15192;SDS011;7697;51.630;7.484;2023-03-03T04:03:56;17.77;;;11.33;;
15192;SDS011;7697;51.630;7.484;2023-03-03T04:08:58;15.63;;;10.53;;
15192;SDS011;7697;51.630;7.484;2023-03-03T04:14:01;18.03;;;11.67;;
15192;SDS011;7697;51.630;7.484;2023-03-03T04:19:02;18.07;;;11.73;;
15192;SDS011;7697;51.630;7.484;2023-03-03T04:24:05;21.10;;;12.83;;
15192;SDS011;7697;51.630;7.484;2023-03-03T04:29:08;27.60;;;15.57;;
15192;SDS011;7697;51.630;7.484;2023-03-03T04:34:10;22.60;;;13.90;;
15192;SDS011;7697;51.630;7.484;2023-03-03T04:39:12;19.60;;;11.97;;
15192;SDS011;7697;51.630;7.484;2023-03-03T04:44:15;18.77;;;11.53;;
15192;SDS011;7697;51.630;7.484;2023-03-03T04:49:17;22.60;;;14.17;;
15192;SDS011;7697;51.630;7.484;2023-03-03T04:54:19;26.30;;;15.50;;
15192;SDS011;7697;51.630;7.484;2023-03-03T04:59:22;26.40;;;15.03;;
15192;SDS011;7697;51.630;7.484;2023-03-03T05:04:24;24.90;;;15.07;;
15192;SDS011;7697;51.630;7.484;2023-03-03T05:09:25;26.40;;;14.70;;
15192;SDS011;7697;51.630;7.484;2023-03-03T05:14:29;23.60;;;13.47;;
15192;SDS011;7697;51.630;7.484;2023-03-03T05:19:31;25.67;;;15.27;;
15192;SDS011;7697;51.630;7.484;2023-03-03T05:24:33;25.70;;;15.20;;
15192;SDS011;7697;51.630;7.484;2023-03-03T05:29:37;26.03;;;14.67;;
15192;SDS011;7697;51.630;7.484;2023-03-03T05:34:39;26.37;;;15.07;;
15192;SDS011;7697;51.630;7.484;2023-03-03T05:39:41;29.93;;;15.90;;
15192;SDS011;7697;51.630;7.484;2023-03-03T05:44:45;28.80;;;16.30;;
15192;SDS011;7697;51.630;7.484;2023-03-03T05:49:46;26.27;;;15.17;;
15192;SDS011;7697;51.630;7.484;2023-03-03T05:54:48;29.20;;;15.60;;
15192;SDS011;7697;51.630;7.484;2023-03-03T05:59:51;32.00;;;17.13;;
15192;SDS011;7697;51.630;7.484;2023-03-03T06:04:53;29.97;;;15.83;;
15192;SDS011;7697;51.630;7.484;2023-03-03T06:09:55;29.50;;;16.37;;
15192;SDS011;7697;51.630;7.484;2023-03-03T06:14:58;31.33;;;16.97;;
15192;SDS011;7697;51.630;7.484;2023-03-03T06:19:59;34.20;;;17.27;;
15192;SDS011;7697;51.630;7.484;2023-03-03T06:25:02;35.63;;;18.13;;
15192;SDS011;7697;51.630;7.484;2023-03-03T06:30:06;30.90;;;16.87;;
15192;SDS011;7697;51.630;7.484;2023-03-03T06:35:09;39.60;;;19.23;;
15192;SDS011;7697;51.630;7.484;2023-03-03T06:40:11;34.53;;;17.43;;
15192;SDS011;7697;51.630;7.484;2023-03-03T06:45:15;34.70;;;17.10;;
15192;SDS011;7697;51.630;7.484;2023-03-03T06:50:17;35.87;;;17.63;;
15192;SDS011;7697;51.630;7.484;2023-03-03T06:55:22;32.57;;;17.43;;
15192;SDS011;7697;51.630;7.484;2023-03-03T07:00:26;35.77;;;17.47;;
15192;SDS011;7697;51.630;7.484;2023-03-03T07:05:28;42.70;;;19.37;;
15192;SDS011;7697;51.630;7.484;2023-03-03T07:10:30;36.60;;;18.47;;
15192;SDS011;7697;51.630;7.484;2023-03-03T07:15:33;36.03;;;17.83;;
15192;SDS011;7697;51.630;7.484;2023-03-03T07:20:37;34.43;;;17.77;;
15192;SDS011;7697;51.630;7.484;2023-03-03T07:25:40;46.17;;;19.67;;
15192;SDS011;7697;51.630;7.484;2023-03-03T07:30:43;37.10;;;17.90;;
15192;SDS011;7697;51.630;7.484;2023-03-03T07:35:45;39.10;;;18.63;;
15192;SDS011;7697;51.630;7.484;2023-03-03T07:40:48;33.97;;;16.20;;
15192;SDS011;7697;51.630;7.484;2023-03-03T07:45:52;37.10;;;18.30;;
15192;SDS011;7697;51.630;7.484;2023-03-03T07:50:57;33.13;;;17.03;;
15192;SDS011;7697;51.630;7.484;2023-03-03T07:56:06;40.83;;;17.53;;
15192;SDS011;7697;51.630;7.484;2023-03-03T08:01:28;34.37;;;16.60;;
15192;SDS011;7697;51.630;7.484;2023-03-03T08:06:43;37.63;;;16.83;;
15192;SDS011;7697;51.630;7.484;2023-03-03T08:11:48;35.93;;;16.97;;
15192;SDS011;7697;51.630;7.484;2023-03-03T08:16:55;32.30;;;15.83;;
15192;SDS011;7697;51.630;7.484;2023-03-03T08:21:58;30.97;;;14.43;;
15192;SDS011;7697;51.630;7.484;2023-03-03T08:27:03;27.30;;;13.90;;
15192;SDS011;7697;51.630;7.484;2023-03-03T08:32:06;25.10;;;12.40;;
15192;SDS011;7697;51.630;7.484;2023-03-03T08:37:08;24.23;;;12.60;;
15192;SDS011;7697;51.630;7.484;2023-03-03T08:42:10;22.20;;;11.23;;
15192;SDS011;7697;51.630;7.484;2023-03-03T08:47:13;23.97;;;12.17;;
15192;SDS011;7697;51.630;7.484;2023-03-03T08:52:15;24.33;;;12.17;;
15192;SDS011;7697;51.630;7.484;2023-03-03T08:57:16;31.57;;;16.53;;
15192;SDS011;7697;51.630;7.484;2023-03-03T09:02:20;23.13;;;11.40;;
15192;SDS011;7697;51.630;7.484;2023-03-03T09:07:22;22.00;;;10.77;;
15192;SDS011;7697;51.630;7.484;2023-03-03T09:12:26;20.73;;;10.83;;
15192;SDS011;7697;51.630;7.484;2023-03-03T09:17:33;21.47;;;11.50;;
15192;SDS011;7697;51.630;7.484;2023-03-03T09:22:36;23.13;;;11.10;;
15192;SDS011;7697;51.630;7.484;2023-03-03T09:27:38;23.10;;;11.43;;
15192;SDS011;7697;51.630;7.484;2023-03-03T09:32:42;19.40;;;10.57;;
15192;SDS011;7697;51.630;7.484;2023-03-03T09:37:43;22.30;;;11.00;;
15192;SDS011;7697;51.630;7.484;2023-03-03T09:42:49;27.50;;;12.63;;
15192;SDS011;7697;51.630;7.484;2023-03-03T09:48:05;27.70;;;13.27;;
15192;SDS011;7697;51.630;7.484;2023-03-03T09:53:24;27.53;;;11.77;;
15192;SDS011;7697;51.630;7.484;2023-03-03T09:58:44;26.07;;;12.70;;
15192;SDS011;7697;51.630;7.484;2023-03-03T10:04:03;23.63;;;12.13;;
15192;SDS011;7697;51.630;7.484;2023-03-03T10:09:33;22.97;;;12.43;;
15192;SDS011;7697;51.630;7.484;2023-03-03T10:14:50;29.73;;;13.20;;
15192;SDS011;7697;51.630;7.484;2023-03-03T10:20:24;24.47;;;12.77;;
15192;SDS011;7697;51.630;7.484;2023-03-03T10:25:37;26.00;;;12.07;;
15192;SDS011;7697;51.630;7.484;2023-03-03T10:30:43;22.17;;;12.00;;
15192;SDS011;7697;51.630;7.484;2023-03-03T10:36:10;23.40;;;12.00;;
15192;SDS011;7697;51.630;7.484;2023-03-03T10:41:28;23.47;;;10.83;;
15192;SDS011;7697;51.630;7.484;2023-03-03T10:46:48;23.20;;;11.53;;
15192;SDS011;7697;51.630;7.484;2023-03-03T10:52:21;19.67;;;10.80;;
15192;SDS011;7697;51.630;7.484;2023-03-03T10:57:33;25.70;;;12.50;;
15192;SDS011;7697;51.630;7.484;2023-03-03T11:02:42;22.60;;;11.83;;
15192;SDS011;7697;51.630;7.484;2023-03-03T11:07:55;24.20;;;13.20;;
15192;SDS011;7697;51.630;7.484;2023-03-03T11:13:04;27.23;;;13.00;;
15192;SDS011;7697;51.630;7.484;2023-03-03T11:18:14;20.93;;;11.70;;
15192;SDS011;7697;51.630;7.484;2023-03-03T11:23:31;24.50;;;13.53;;
15192;SDS011;7697;51.630;7.484;2023-03-03T11:28:48;27.67;;;13.30;;
15192;SDS011;7697;51.630;7.484;2023-03-03T11:34:00;23.37;;;12.87;;
15192;SDS011;7697;51.630;7.484;2023-03-03T11:39:17;22.67;;;11.47;;
15192;SDS011;7697;51.630;7.484;2023-03-03T11:44:23;21.77;;;11.13;;
15192;SDS011;7697;51.630;7.484;2023-03-03T11:49:32;24.20;;;14.23;;
15192;SDS011;7697;51.630;7.484;2023-03-03T11:54:43;21.90;;;12.03;;
15192;SDS011;7697;51.630;7.484;2023-03-03T11:59:55;21.97;;;12.00;;
15192;SDS011;7697;51.630;7.484;2023-03-03T12:05:06;23.23;;;11.63;;
15192;SDS011;7697;51.630;7.484;2023-03-03T12:10:15;24.20;;;12.53;;
15192;SDS011;7697;51.630;7.484;2023-03-03T12:15:26;23.63;;;12.07;;
15192;SDS011;7697;51.630;7.484;2023-03-03T12:20:39;24.20;;;11.97;;
15192;SDS011;7697;51.630;7.484;2023-03-03T12:25:53;23.43;;;11.43;;
15192;SDS011;7697;51.630;7.484;2023-03-03T12:31:12;20.70;;;11.27;;
15192;SDS011;7697;51.630;7.484;2023-03-03T12:36:26;20.07;;;10.10;;
15192;SDS011;7697;51.630;7.484;2023-03-03T12:41:40;17.17;;;9.10;;
15192;SDS011;7697;51.630;7.484;2023-03-03T12:46:50;19.97;;;10.40;;
15192;SDS011;7697;51.630;7.484;2023-03-03T12:52:04;19.70;;;9.03;;
15192;SDS011;7697;51.630;7.484;2023-03-03T12:57:18;19.87;;;9.47;;
15192;SDS011;7697;51.630;7.484;2023-03-03T13:02:40;22.30;;;10.63;;
15192;SDS011;7697;51.630;7.484;2023-03-03T13:07:50;23.97;;;11.83;;
15192;SDS011;7697;51.630;7.484;2023-03-03T13:13:07;19.10;;;9.37;;
15192;SDS011;7697;51.630;7.484;2023-03-03T13:18:20;18.33;;;9.80;;
15192;SDS011;7697;51.630;7.484;2023-03-03T13:23:33;17.97;;;10.17;;
15192;SDS011;7697;51.630;7.484;2023-03-03T13:28:45;18.87;;;9.80;;
15192;SDS011;7697;51.630;7.484;2023-03-03T13:33:56;16.30;;;9.00;;
15192;SDS011;7697;51.630;7.484;2023-03-03T13:39:01;18.37;;;10.13;;
15192;SDS011;7697;51.630;7.484;2023-03-03T13:44:16;15.87;;;9.20;;
15192;SDS011;7697;51.630;7.484;2023-03-03T13:49:26;16.17;;;8.97;;
15192;SDS011;7697;51.630;7.484;2023-03-03T14:00:23;14.50;;;8.57;;
15192;SDS011;7697;51.630;7.484;2023-03-03T14:05:34;17.70;;;9.80;;
15192;SDS011;7697;51.630;7.484;2023-03-03T14:10:40;18.53;;;9.87;;
15192;SDS011;7697;51.630;7.484;2023-03-03T14:15:50;62.73;;;34.03;;
15192;SDS011;7697;51.630;7.484;2023-03-03T14:20:57;33.37;;;22.77;;
15192;SDS011;7697;51.630;7.484;2023-03-03T14:26:05;25.53;;;20.10;;
15192;SDS011;7697;51.630;7.484;2023-03-03T14:31:19;16.80;;;10.17;;
15192;SDS011;7697;51.630;7.484;2023-03-03T14:36:25;17.65;;;9.15;;
15192;SDS011;7697;51.630;7.484;2023-03-03T14:41:35;17.23;;;10.75;;
15192;SDS011;7697;51.630;7.484;2023-03-03T14:46:42;15.40;;;9.80;;
15192;SDS011;7697;51.630;7.484;2023-03-03T14:51:44;13.32;;;7.88;;
15192;SDS011;7697;51.630;7.484;2023-03-03T14:56:56;14.32;;;9.30;;
15192;SDS011;7697;51.630;7.484;2023-03-03T15:02:07;14.80;;;8.88;;
15192;SDS011;7697;51.630;7.484;2023-03-03T15:07:30;15.27;;;9.30;;
15192;SDS011;7697;51.630;7.484;2023-03-03T15:12:36;14.73;;;8.93;;
15192;SDS011;7697;51.630;7.484;2023-03-03T15:17:42;13.27;;;8.98;;
15192;SDS011;7697;51.630;7.484;2023-03-03T15:22:54;17.67;;;10.25;;
15192;SDS011;7697;51.630;7.484;2023-03-03T15:28:09;14.25;;;9.43;;
15192;SDS011;7697;51.630;7.484;2023-03-03T15:33:26;14.20;;;9.02;;
15192;SDS011;7697;51.630;7.484;2023-03-03T15:38:42;14.40;;;9.02;;
15192;SDS011;7697;51.630;7.484;2023-03-03T15:43:58;15.93;;;9.85;;
15192;SDS011;7697;51.630;7.484;2023-03-03T15:49:14;12.57;;;8.32;;
15192;SDS011;7697;51.630;7.484;2023-03-03T15:54:29;13.52;;;8.95;;
15192;SDS011;7697;51.630;7.484;2023-03-03T15:59:49;12.18;;;8.50;;
15192;SDS011;7697;51.630;7.484;2023-03-03T16:05:12;13.30;;;8.35;;
15192;SDS011;7697;51.630;7.484;2023-03-03T16:10:18;13.15;;;8.88;;
15192;SDS011;7697;51.630;7.484;2023-03-03T16:15:28;12.05;;;8.07;;
15192;SDS011;7697;51.630;7.484;2023-03-03T16:20:44;13.63;;;8.55;;
15192;SDS011;7697;51.630;7.484;2023-03-03T16:26:00;13.68;;;9.18;;
15192;SDS011;7697;51.630;7.484;2023-03-03T16:31:09;14.55;;;9.15;;
15192;SDS011;7697;51.630;7.484;2023-03-03T16:36:22;13.57;;;9.10;;
15192;SDS011;7697;51.630;7.484;2023-03-03T16:41:34;13.82;;;8.50;;
15192;SDS011;7697;51.630;7.484;2023-03-03T16:46:43;13.38;;;8.23;;
15192;SDS011;7697;51.630;7.484;2023-03-03T16:51:50;12.40;;;8.43;;
15192;SDS011;7697;51.630;7.484;2023-03-03T16:56:58;12.13;;;8.07;;
15192;SDS011;7697;51.630;7.484;2023-03-03T17:02:11;12.27;;;8.10;;
15192;SDS011;7697;51.630;7.484;2023-03-03T17:07:27;11.43;;;7.70;;
15192;SDS011;7697;51.630;7.484;2023-03-03T17:12:45;13.85;;;8.27;;
15192;SDS011;7697;51.630;7.484;2023-03-03T17:17:59;17.90;;;9.95;;
15192;SDS011;7697;51.630;7.484;2023-03-03T17:23:18;26.53;;;13.07;;
15192;SDS011;7697;51.630;7.484;2023-03-03T17:28:35;27.58;;;12.88;;
15192;SDS011;7697;51.630;7.484;2023-03-03T17:33:56;26.43;;;13.10;;
15192;SDS011;7697;51.630;7.484;2023-03-03T17:39:12;20.20;;;11.20;;
15192;SDS011;7697;51.630;7.484;2023-03-03T17:44:36;17.03;;;10.17;;
15192;SDS011;7697;51.630;7.484;2023-03-03T17:49:52;16.57;;;9.60;;
15192;SDS011;7697;51.630;7.484;2023-03-03T18:00:34;16.23;;;9.47;;
15192;SDS011;7697;51.630;7.484;2023-03-03T18:05:53;17.17;;;9.33;;
15192;SDS011;7697;51.630;7.484;2023-03-03T18:11:19;13.60;;;8.73;;
15192;SDS011;7697;51.630;7.484;2023-03-03T18:16:31;14.70;;;9.27;;
15192;SDS011;7697;51.630;7.484;2023-03-03T18:21:50;15.03;;;8.53;;
15192;SDS011;7697;51.630;7.484;2023-03-03T18:27:13;13.47;;;8.47;;
15192;SDS011;7697;51.630;7.484;2023-03-03T18:32:39;16.10;;;9.17;;
15192;SDS011;7697;51.630;7.484;2023-03-03T18:37:43;16.13;;;8.90;;
15192;SDS011;7697;51.630;7.484;2023-03-03T18:42:46;17.17;;;9.53;;
15192;SDS011;7697;51.630;7.484;2023-03-03T18:48:02;20.50;;;11.93;;
15192;SDS011;7697;51.630;7.484;2023-03-03T18:53:15;17.43;;;11.47;;
15192;SDS011;7697;51.630;7.484;2023-03-03T19:03:54;17.60;;;10.70;;
15192;SDS011;7697;51.630;7.484;2023-03-03T19:09:03;18.23;;;11.43;;
15192;SDS011;7697;51.630;7.484;2023-03-03T19:14:17;20.07;;;13.17;;
15192;SDS011;7697;51.630;7.484;2023-03-03T19:19:30;18.77;;;12.27;;
15192;SDS011;7697;51.630;7.484;2023-03-03T19:24:33;17.67;;;11.60;;
15192;SDS011;7697;51.630;7.484;2023-03-03T19:35:08;22.23;;;13.90;;
15192;SDS011;7697;51.630;7.484;2023-03-03T19:40:21;24.13;;;14.67;;
15192;SDS011;7697;51.630;7.484;2023-03-03T19:45:39;24.37;;;13.67;;
15192;SDS011;7697;51.630;7.484;2023-03-03T19:50:51;23.17;;;13.60;;
15192;SDS011;7697;51.630;7.484;2023-03-03T19:56:09;21.97;;;14.00;;
15192;SDS011;7697;51.630;7.484;2023-03-03T20:01:22;25.47;;;14.83;;
15192;SDS011;7697;51.630;7.484;2023-03-03T20:06:31;23.77;;;14.20;;
15192;SDS011;7697;51.630;7.484;2023-03-03T20:11:53;17.83;;;11.93;;
15192;SDS011;7697;51.630;7.484;2023-03-03T20:17:15;19.20;;;11.33;;
15192;SDS011;7697;51.630;7.484;2023-03-03T20:22:27;19.77;;;12.87;;
15192;SDS011;7697;51.630;7.484;2023-03-03T20:27:39;23.77;;;14.83;;
15192;SDS011;7697;51.630;7.484;2023-03-03T20:32:57;24.23;;;14.30;;
15192;SDS011;7697;51.630;7.484;2023-03-03T20:38:15;24.43;;;15.27;;
15192;SDS011;7697;51.630;7.484;2023-03-03T20:43:27;21.93;;;13.10;;
15192;SDS011;7697;51.630;7.484;2023-03-03T20:48:46;21.83;;;13.30;;
15192;SDS011;7697;51.630;7.484;2023-03-03T20:54:02;19.93;;;12.40;;
15192;SDS011;7697;51.630;7.484;2023-03-03T20:59:15;22.07;;;13.07;;
15192;SDS011;7697;51.630;7.484;2023-03-03T21:04:24;26.57;;;14.83;;
15192;SDS011;7697;51.630;7.484;2023-03-03T21:09:27;17.30;;;11.73;;
15192;SDS011;7697;51.630;7.484;2023-03-03T21:14:32;20.20;;;12.43;;
15192;SDS011;7697;51.630;7.484;2023-03-03T21:19:37;26.10;;;14.77;;
15192;SDS011;7697;51.630;7.484;2023-03-03T21:24:48;21.27;;;12.53;;
15192;SDS011;7697;51.630;7.484;2023-03-03T21:30:00;24.13;;;13.93;;
15192;SDS011;7697;51.630;7.484;2023-03-03T21:35:06;23.30;;;13.33;;
15192;SDS011;7697;51.630;7.484;2023-03-03T21:40:12;18.80;;;11.47;;
15192;SDS011;7697;51.630;7.484;2023-03-03T21:45:17;22.30;;;13.37;;
15192;SDS011;7697;51.630;7.484;2023-03-03T21:50:21;24.80;;;14.37;;
15192;SDS011;7697;51.630;7.484;2023-03-03T21:55:24;24.40;;;15.07;;
15192;SDS011;7697;51.630;7.484;2023-03-03T22:00:26;24.77;;;13.77;;
15192;SDS011;7697;51.630;7.484;2023-03-03T22:05:29;19.07;;;11.53;;
15192;SDS011;7697;51.630;7.484;2023-03-03T22:10:31;22.73;;;12.93;;
15192;SDS011;7697;51.630;7.484;2023-03-03T22:15:33;19.23;;;11.50;;
15192;SDS011;7697;51.630;7.484;2023-03-03T22:20:36;18.27;;;11.57;;
15192;SDS011;7697;51.630;7.484;2023-03-03T22:25:38;18.60;;;11.87;;
15192;SDS011;7697;51.630;7.484;2023-03-03T22:30:40;20.03;;;11.73;;
15192;SDS011;7697;51.630;7.484;2023-03-03T22:35:43;20.13;;;10.83;;
15192;SDS011;7697;51.630;7.484;2023-03-03T22:40:45;13.67;;;8.93;;
15192;SDS011;7697;51.630;7.484;2023-03-03T22:45:46;14.97;;;8.17;;
15192;SDS011;7697;51.630;7.484;2023-03-03T22:50:51;13.83;;;5.10;;
15192;SDS011;7697;51.630;7.484;2023-03-03T22:55:53;12.03;;;5.17;;
15192;SDS011;7697;51.630;7.484;2023-03-03T23:00:54;8.07;;;4.03;;
15192;SDS011;7697;51.630;7.484;2023-03-03T23:05:58;10.87;;;3.70;;
15192;SDS011;7697;51.630;7.484;2023-03-03T23:11:00;12.47;;;3.77;;
15192;SDS011;7697;51.630;7.484;2023-03-03T23:16:02;9.63;;;3.60;;
15192;SDS011;7697;51.630;7.484;2023-03-03T23:21:05;10.47;;;3.67;;
15192;SDS011;7697;51.630;7.484;2023-03-03T23:26:07;6.80;;;2.90;;
15192;SDS011;7697;51.630;7.484;2023-03-03T23:31:08;7.27;;;2.80;;
15192;SDS011;7697;51.630;7.484;2023-03-03T23:36:11;5.63;;;2.37;;
15192;SDS011;7697;51.630;7.484;2023-03-03T23:41:13;7.13;;;3.37;;
15192;SDS011;7697;51.630;7.484;2023-03-03T23:46:15;5.80;;;3.00;;
15192;SDS011;7697;51.630;7.484;2023-03-03T23:51:18;7.90;;;3.20;;
15192;SDS011;7697;51.630;7.484;2023-03-03T23:56:20;6.13;;;3.13;;
